createdAt,value
2023-04-03T00:00:22.028Z,2.13
2023-04-03T00:02:50.417Z,2.13
2023-04-03T00:05:19.073Z,1.90
2023-04-03T00:07:47.839Z,1.98
2023-04-03T00:10:18.152Z,2.10
2023-04-03T00:12:46.572Z,1.80
2023-04-03T00:15:14.973Z,2.13
2023-04-03T00:17:43.591Z,1.67
2023-04-03T00:20:12.223Z,1.85
2023-04-03T00:22:40.680Z,2.10
2023-04-03T00:25:10.600Z,1.50
2023-04-03T00:27:42.401Z,1.98
2023-04-03T00:30:14.980Z,2.20
2023-04-03T00:32:43.483Z,2.05
2023-04-03T00:35:12.092Z,2.08
2023-04-03T00:37:40.561Z,1.77
2023-04-03T00:40:11.594Z,1.48
2023-04-03T00:42:43.269Z,1.50
2023-04-03T00:45:32.366Z,1.48
2023-04-03T00:48:04.258Z,1.42
2023-04-03T00:50:37.628Z,1.23
2023-04-03T00:53:08.119Z,1.17
2023-04-03T00:55:39.393Z,1.52
2023-04-03T00:58:10.624Z,1.60
2023-04-03T01:00:43.413Z,1.30
2023-04-03T01:03:11.796Z,1.10
2023-04-03T01:05:41.912Z,1.55
2023-04-03T01:08:11.053Z,1.58
2023-04-03T01:10:39.530Z,1.20
2023-04-03T01:13:23.326Z,1.80
2023-04-03T01:15:52.694Z,1.67
2023-04-03T01:18:21.730Z,1.45
2023-04-03T01:21:25.142Z,1.50
2023-04-03T01:24:13.169Z,1.50
2023-04-03T01:26:41.916Z,1.58
2023-04-03T01:29:12.680Z,1.65
2023-04-03T01:31:51.789Z,2.28
2023-04-03T01:34:35.588Z,1.88
2023-04-03T01:37:04.776Z,1.50
2023-04-03T01:39:32.928Z,1.55
2023-04-03T01:42:02.224Z,1.60
2023-04-03T01:44:35.197Z,1.73
2023-04-03T01:47:08.815Z,1.30
2023-04-03T01:49:38.297Z,1.63
2023-04-03T01:52:06.865Z,1.40
2023-04-03T01:54:35.299Z,1.48
2023-04-03T01:57:04.378Z,1.40
2023-04-03T01:59:33.035Z,1.45
2023-04-03T02:02:01.204Z,1.40
2023-04-03T02:04:30.967Z,1.27
2023-04-03T02:06:59.694Z,1.60
2023-04-03T02:09:28.048Z,1.45
2023-04-03T02:11:56.852Z,1.15
2023-04-03T02:14:25.513Z,1.10
2023-04-03T02:16:53.853Z,1.30
2023-04-03T02:19:24.338Z,1.27
2023-04-03T02:21:54.138Z,1.30
2023-04-03T02:24:22.460Z,1.50
2023-04-03T02:26:50.668Z,1.30
2023-04-03T02:29:19.150Z,1.70
2023-04-03T02:31:47.256Z,1.45
2023-04-03T02:34:16.665Z,1.67
2023-04-03T02:36:46.279Z,1.23
2023-04-03T02:39:17.652Z,1.30
2023-04-03T02:41:46.815Z,1.40
2023-04-03T02:44:20.891Z,1.27
2023-04-03T02:46:49.226Z,1.60
2023-04-03T02:49:17.043Z,1.67
2023-04-03T02:51:45.046Z,1.50
2023-04-03T02:54:13.162Z,1.40
2023-04-03T02:56:46.599Z,1.52
2023-04-03T02:59:14.385Z,1.58
2023-04-03T03:01:43.055Z,1.20
2023-04-03T03:04:10.983Z,1.50
2023-04-03T03:06:38.704Z,1.30
2023-04-03T03:09:06.956Z,1.30
2023-04-03T03:11:34.786Z,1.45
2023-04-03T03:14:05.692Z,1.20
2023-04-03T03:16:34.655Z,1.83
2023-04-03T03:19:02.413Z,1.42
2023-04-03T03:21:30.370Z,1.65
2023-04-03T03:23:58.185Z,1.40
2023-04-03T03:26:26.219Z,1.83
2023-04-03T03:28:54.003Z,1.48
2023-04-03T03:31:23.253Z,1.60
2023-04-03T03:33:51.169Z,1.98
2023-04-03T03:36:19.108Z,1.75
2023-04-03T03:38:46.811Z,1.77
2023-04-03T03:41:14.518Z,1.80
2023-04-03T03:43:44.477Z,1.60
2023-04-03T03:46:14.460Z,1.30
2023-04-03T03:48:43.568Z,1.65
2023-04-03T03:51:11.356Z,1.40
2023-04-03T03:53:40.418Z,1.60
2023-04-03T03:56:12.467Z,1.52
2023-04-03T03:58:41.596Z,1.48
2023-04-03T04:01:09.437Z,3.22
2023-04-03T04:03:44.647Z,1.33
2023-04-03T04:06:15.584Z,1.83
2023-04-03T04:08:43.722Z,1.23
2023-04-03T04:11:13.105Z,1.63
2023-04-03T04:13:42.112Z,1.38
2023-04-03T04:16:11.807Z,1.92
2023-04-03T04:18:39.821Z,1.52
2023-04-03T04:21:09.171Z,1.70
2023-04-03T04:23:37.504Z,1.60
2023-04-03T04:26:05.377Z,1.67
2023-04-03T04:28:36.610Z,1.55
2023-04-03T04:31:05.742Z,1.73
2023-04-03T04:33:33.979Z,1.95
2023-04-03T04:36:04.612Z,1.75
2023-04-03T04:38:35.172Z,1.88
2023-04-03T04:41:03.207Z,1.88
2023-04-03T04:43:30.870Z,1.85
2023-04-03T04:46:05.846Z,2.60
2023-04-03T04:48:37.766Z,3.10
2023-04-03T04:51:06.716Z,3.00
2023-04-03T04:53:37.820Z,2.95
2023-04-03T04:56:06.611Z,3.17
2023-04-03T04:58:35.831Z,3.28
2023-04-03T05:01:19.805Z,3.15
2023-04-03T05:04:11.538Z,2.60
2023-04-03T05:06:39.684Z,2.22
2023-04-03T05:09:14.368Z,2.17
2023-04-03T05:11:44.377Z,2.20
2023-04-03T05:14:14.349Z,2.17
2023-04-03T05:16:42.776Z,2.45
2023-04-03T05:19:10.567Z,2.47
2023-04-03T05:21:39.015Z,3.05
2023-04-03T05:24:13.659Z,2.78
2023-04-03T05:26:44.208Z,2.28
2023-04-03T05:29:13.514Z,2.10
2023-04-03T05:31:43.009Z,1.85
2023-04-03T05:34:12.725Z,1.80
2023-04-03T05:36:41.684Z,1.88
2023-04-03T05:39:11.077Z,2.00
2023-04-03T05:41:43.856Z,1.48
2023-04-03T05:44:11.621Z,1.45
2023-04-03T05:46:39.425Z,1.10
2023-04-03T05:49:09.854Z,1.35
2023-04-03T05:51:39.689Z,1.02
2023-04-03T05:54:29.563Z,1.13
2023-04-03T05:57:05.992Z,1.17
2023-04-03T05:59:33.937Z,1.10
2023-04-03T06:02:02.267Z,1.55
2023-04-03T06:04:30.441Z,1.40
2023-04-03T06:06:59.224Z,1.23
2023-04-03T06:09:30.279Z,1.40
2023-04-03T06:11:59.820Z,1.00
2023-04-03T06:14:30.517Z,1.23
2023-04-03T06:16:58.548Z,1.95
2023-04-03T06:19:27.065Z,1.65
2023-04-03T06:21:57.283Z,1.10
2023-04-03T06:24:26.336Z,1.08
2023-04-03T06:26:54.560Z,0.75
2023-04-03T06:29:22.327Z,0.88
2023-04-03T06:31:52.101Z,0.90
2023-04-03T06:34:20.038Z,0.90
2023-04-03T06:36:47.997Z,0.90
2023-04-03T06:39:18.140Z,0.73
2023-04-03T06:41:45.863Z,0.90
2023-04-03T06:44:14.545Z,0.70
2023-04-03T06:46:42.430Z,0.85
2023-04-03T06:49:31.426Z,0.75
2023-04-03T06:52:01.030Z,0.88
2023-04-03T06:54:30.715Z,0.82
2023-04-03T06:56:58.864Z,0.63
2023-04-03T06:59:26.967Z,0.70
2023-04-03T07:01:54.966Z,0.73
2023-04-03T07:04:24.386Z,0.35
2023-04-03T07:06:52.295Z,0.60
2023-04-03T07:09:20.352Z,0.40
2023-04-03T07:11:48.135Z,1.88
2023-04-03T07:14:16.309Z,0.63
2023-04-03T07:16:44.046Z,0.45
2023-04-03T07:19:11.847Z,0.57
2023-04-03T07:21:43.046Z,0.52
2023-04-03T07:24:13.106Z,0.63
2023-04-03T07:26:44.208Z,0.47
2023-04-03T07:29:12.100Z,0.30
2023-04-03T07:32:08.192Z,0.50
2023-04-03T07:34:36.437Z,1.20
2023-04-03T07:37:06.203Z,0.68
2023-04-03T07:39:34.204Z,0.30
2023-04-03T07:42:03.066Z,0.55
2023-04-03T07:44:31.290Z,0.80
2023-04-03T07:46:59.183Z,0.43
2023-04-03T07:49:27.306Z,0.57
2023-04-03T07:51:55.596Z,0.55
2023-04-03T07:54:24.787Z,0.40
2023-04-03T07:56:52.651Z,0.63
2023-04-03T07:59:20.834Z,0.50
2023-04-03T08:01:48.778Z,0.50
2023-04-03T08:04:16.503Z,0.50
2023-04-03T08:06:47.004Z,0.45
2023-04-03T08:09:16.493Z,0.50
2023-04-03T08:11:49.441Z,0.63
2023-04-03T08:14:18.103Z,0.68
2023-04-03T08:16:47.274Z,0.40
2023-04-03T08:19:25.467Z,0.35
2023-04-03T08:21:54.774Z,0.55
2023-04-03T08:24:22.772Z,0.50
2023-04-03T08:26:52.259Z,0.52
2023-04-03T08:29:20.076Z,0.60
2023-04-03T08:31:47.875Z,0.40
2023-04-03T08:34:16.649Z,0.50
2023-04-03T08:36:45.122Z,0.55
2023-04-03T08:39:13.372Z,0.40
2023-04-03T08:41:49.209Z,0.25
2023-04-03T08:44:24.444Z,0.30
2023-04-03T08:47:10.667Z,0.30
2023-04-03T08:49:42.189Z,0.35
2023-04-03T08:52:13.937Z,0.55
2023-04-03T08:54:52.165Z,0.40
2023-04-03T08:57:27.881Z,0.70
2023-04-03T08:59:59.211Z,0.40
2023-04-03T09:02:33.966Z,0.38
2023-04-03T09:05:04.077Z,0.40
2023-04-03T09:07:38.209Z,0.50
2023-04-03T09:10:07.255Z,0.40
2023-04-03T09:12:40.415Z,0.30
2023-04-03T09:15:24.861Z,0.50
2023-04-03T09:18:05.905Z,0.45
2023-04-03T09:20:45.106Z,0.57
2023-04-03T09:23:23.929Z,0.82
2023-04-03T09:25:55.699Z,0.95
2023-04-03T09:28:23.423Z,0.40
2023-04-03T09:30:52.736Z,0.57
2023-04-03T09:33:31.572Z,0.60
2023-04-03T09:35:59.530Z,0.50
2023-04-03T09:38:27.825Z,0.60
2023-04-03T09:41:07.001Z,0.63
2023-04-03T09:43:36.149Z,0.68
2023-04-03T09:46:29.641Z,0.40
2023-04-03T09:49:08.300Z,0.30
2023-04-03T09:51:37.712Z,0.30
2023-04-03T09:54:33.952Z,0.40
2023-04-03T09:57:07.495Z,0.50
2023-04-03T09:59:35.647Z,0.57
2023-04-03T10:02:23.897Z,0.28
2023-04-03T10:05:06.331Z,0.30
2023-04-03T10:07:38.366Z,0.30
2023-04-03T10:10:21.401Z,0.63
2023-04-03T10:12:50.150Z,0.90
2023-04-03T10:15:22.776Z,0.77
2023-04-03T10:17:59.246Z,0.60
2023-04-03T10:23:05.209Z,0.30
2023-04-03T10:25:41.303Z,0.40
2023-04-03T10:28:15.875Z,0.57
2023-04-03T10:30:51.773Z,0.40
2023-04-03T10:33:53.710Z,0.73
2023-04-03T10:36:35.238Z,0.50
2023-04-03T10:39:12.054Z,0.50
2023-04-03T10:41:58.098Z,0.60
2023-04-03T10:44:43.778Z,0.47
2023-04-03T10:47:18.156Z,0.70
2023-04-03T10:50:00.027Z,0.50
2023-04-03T10:52:42.651Z,0.50
2023-04-03T10:55:26.119Z,0.43
2023-04-03T10:57:58.134Z,0.40
2023-04-03T11:00:32.343Z,0.50
2023-04-03T11:03:04.831Z,0.60
2023-04-03T11:05:38.244Z,0.52
2023-04-03T11:08:18.759Z,0.77
2023-04-03T11:10:49.501Z,0.52
2023-04-03T11:13:24.308Z,0.43
2023-04-03T11:15:57.053Z,0.40
2023-04-03T11:18:30.145Z,0.43
2023-04-03T11:21:05.378Z,0.40
2023-04-03T11:23:48.805Z,0.63
2023-04-03T11:26:19.635Z,0.60
2023-04-03T11:28:47.873Z,0.60
2023-04-03T11:31:31.507Z,0.40
2023-04-03T11:34:09.469Z,1.20
2023-04-03T11:36:44.076Z,0.50
2023-04-03T11:39:29.886Z,0.47
2023-04-03T11:42:14.416Z,0.52
2023-04-03T11:44:42.706Z,0.82
2023-04-03T11:47:12.965Z,0.35
2023-04-03T11:50:00.497Z,0.65
2023-04-03T11:53:00.162Z,0.38
2023-04-03T11:55:56.719Z,0.75
2023-04-03T11:58:26.412Z,0.30
2023-04-03T12:00:57.768Z,0.47
2023-04-03T12:04:01.542Z,0.60
2023-04-03T12:07:14.776Z,0.57
2023-04-03T12:10:30.331Z,0.40
2023-04-03T12:13:03.717Z,0.50
2023-04-03T12:15:51.136Z,0.40
2023-04-03T12:18:42.687Z,0.50
2023-04-03T12:21:11.209Z,0.57
2023-04-03T12:24:04.724Z,0.50
2023-04-03T12:26:49.120Z,0.68
2023-04-03T12:29:24.818Z,0.50
2023-04-03T12:32:07.480Z,0.57
2023-04-03T12:34:52.598Z,1.10
2023-04-03T12:37:39.703Z,0.50
2023-04-03T12:40:17.301Z,0.40
2023-04-03T12:43:12.238Z,0.65
2023-04-03T12:45:46.126Z,0.47
2023-04-03T12:48:17.276Z,0.38
2023-04-03T12:50:47.384Z,0.52
2023-04-03T12:53:19.315Z,0.40
2023-04-03T12:55:47.364Z,0.57
2023-04-03T12:58:18.048Z,0.40
2023-04-03T13:00:47.371Z,0.45
2023-04-03T13:03:25.613Z,0.40
2023-04-03T13:05:54.257Z,0.28
2023-04-03T13:08:23.811Z,0.30
2023-04-03T13:10:56.927Z,0.47
2023-04-03T13:13:25.132Z,0.40
2023-04-03T13:15:55.656Z,0.65
2023-04-03T13:18:29.840Z,0.20
2023-04-03T13:21:03.216Z,0.50
2023-04-03T13:23:32.726Z,0.47
2023-04-03T13:26:04.609Z,0.70
2023-04-03T13:28:33.690Z,0.75
2023-04-03T13:31:08.303Z,0.32
2023-04-03T13:33:40.378Z,0.30
2023-04-03T13:36:25.767Z,0.45
2023-04-03T13:39:01.040Z,0.35
2023-04-03T13:41:33.598Z,0.90
2023-04-03T13:44:17.718Z,0.40
2023-04-03T13:46:47.956Z,0.30
2023-04-03T13:49:21.287Z,0.40
2023-04-03T13:51:57.120Z,0.40
2023-04-03T13:54:37.758Z,0.30
2023-04-03T13:57:14.372Z,0.80
2023-04-03T13:59:44.540Z,0.40
2023-04-03T14:02:18.400Z,0.70
2023-04-03T14:04:51.019Z,0.60
2023-04-03T14:07:21.342Z,0.32
2023-04-03T14:09:49.903Z,0.68
2023-04-03T14:12:30.035Z,0.50
2023-04-03T14:15:00.082Z,0.30
2023-04-03T14:17:29.882Z,0.50
2023-04-03T14:19:59.939Z,0.30
2023-04-03T14:22:29.953Z,0.40
2023-04-03T14:24:58.667Z,0.30
2023-04-03T14:27:35.675Z,0.30
2023-04-03T14:30:05.504Z,0.68
2023-04-03T14:32:36.264Z,0.47
2023-04-03T14:35:04.764Z,0.38
2023-04-03T14:37:35.036Z,0.30
2023-04-03T14:40:06.639Z,0.20
2023-04-03T14:42:36.489Z,0.20
2023-04-03T14:45:07.288Z,0.40
2023-04-03T14:47:43.823Z,0.60
2023-04-03T14:52:44.917Z,0.52
2023-04-03T14:55:15.848Z,0.20
2023-04-03T14:57:44.038Z,0.30
2023-04-03T15:00:15.632Z,0.20
2023-04-03T15:02:45.741Z,0.25
2023-04-03T15:05:15.173Z,0.30
2023-04-03T15:07:48.738Z,0.70
2023-04-03T15:10:20.352Z,0.40
2023-04-03T15:12:49.757Z,0.40
2023-04-03T15:15:21.224Z,0.30
2023-04-03T15:17:55.405Z,0.20
2023-04-03T15:20:25.342Z,0.20
2023-04-03T15:22:53.715Z,0.17
2023-04-03T15:25:21.840Z,0.45
2023-04-03T15:27:49.887Z,0.50
2023-04-03T15:30:20.114Z,0.40
2023-04-03T15:32:50.203Z,0.30
2023-04-03T15:35:18.362Z,0.63
2023-04-03T15:37:46.410Z,0.25
2023-04-03T15:40:14.654Z,0.40
2023-04-03T15:42:42.867Z,0.30
2023-04-03T15:45:11.476Z,0.40
2023-04-03T15:47:40.225Z,0.30
2023-04-03T15:50:10.965Z,0.25
2023-04-03T15:52:38.934Z,0.63
2023-04-03T15:55:07.942Z,0.40
2023-04-03T16:00:10.431Z,0.32
2023-04-03T16:02:38.618Z,0.40
2023-04-03T16:05:10.164Z,0.88
2023-04-03T16:07:39.456Z,1.00
2023-04-03T16:10:08.993Z,1.13
2023-04-03T16:12:37.694Z,0.63
2023-04-03T16:15:07.038Z,0.57
2023-04-03T16:17:36.713Z,0.45
2023-04-03T16:20:06.573Z,0.55
2023-04-03T16:22:36.606Z,0.30
2023-04-03T16:25:06.105Z,0.50
2023-04-03T16:27:34.684Z,0.50
2023-04-03T16:30:26.776Z,0.52
2023-04-03T16:32:56.716Z,0.57
2023-04-03T16:35:24.906Z,0.47
2023-04-03T16:37:54.431Z,0.60
2023-04-03T16:40:22.430Z,0.52
2023-04-03T16:42:50.597Z,0.50
2023-04-03T16:45:18.955Z,1.05
2023-04-03T16:47:47.077Z,1.00
2023-04-03T16:50:15.622Z,0.70
2023-04-03T16:52:43.829Z,1.05
2023-04-03T16:55:13.600Z,0.88
2023-04-03T16:57:41.792Z,0.70
2023-04-03T17:00:11.065Z,0.50
2023-04-03T17:02:39.184Z,0.57
2023-04-03T17:05:07.759Z,0.70
2023-04-03T17:07:35.991Z,0.80
2023-04-03T17:10:04.212Z,0.50
2023-04-03T17:12:33.795Z,0.38
2023-04-03T17:15:01.970Z,0.80
2023-04-03T17:17:30.039Z,0.65
2023-04-03T17:19:58.482Z,1.00
2023-04-03T17:22:31.694Z,0.80
2023-04-03T17:25:00.039Z,0.73
2023-04-03T17:27:28.045Z,0.90
2023-04-03T17:29:57.631Z,0.55
2023-04-03T17:32:26.723Z,0.93
2023-04-03T17:34:55.234Z,1.15
2023-04-03T17:37:23.177Z,1.35
2023-04-03T17:39:54.426Z,1.55
2023-04-03T17:42:22.824Z,0.90
2023-04-03T17:44:51.235Z,0.80
2023-04-03T17:47:20.658Z,0.90
2023-04-03T17:49:48.430Z,0.70
2023-04-03T17:52:16.745Z,1.00
2023-04-03T17:54:44.670Z,1.10
2023-04-03T17:57:12.772Z,1.23
2023-04-03T17:59:40.757Z,0.85
2023-04-03T18:02:08.675Z,1.52
2023-04-03T18:04:38.184Z,3.13
2023-04-03T18:07:09.940Z,2.53
2023-04-03T18:09:41.157Z,2.47
2023-04-03T18:12:10.680Z,2.90
2023-04-03T18:14:39.593Z,2.70
2023-04-03T18:17:08.383Z,1.92
2023-04-03T18:19:37.905Z,2.05
2023-04-03T18:22:09.378Z,2.70
2023-04-03T18:24:37.957Z,2.42
2023-04-03T18:27:10.287Z,2.28
2023-04-03T18:29:41.200Z,2.65
2023-04-03T18:32:12.332Z,1.85
2023-04-03T18:34:41.813Z,1.77
2023-04-03T18:37:09.699Z,1.25
2023-04-03T18:39:37.896Z,1.13
2023-04-03T18:42:08.885Z,2.47
2023-04-03T18:44:38.717Z,2.13
2023-04-03T18:47:07.934Z,2.53
2023-04-03T18:49:39.388Z,2.20
2023-04-03T18:52:10.796Z,1.73
2023-04-03T18:54:39.237Z,1.20
2023-04-03T18:57:07.599Z,1.38
2023-04-03T18:59:37.900Z,1.52
2023-04-03T19:02:06.463Z,1.85
2023-04-03T19:04:35.413Z,1.80
2023-04-03T19:07:06.031Z,1.73
2023-04-03T19:09:36.224Z,1.77
2023-04-03T19:12:04.887Z,1.70
2023-04-03T19:14:33.016Z,1.65
2023-04-03T19:17:02.658Z,1.20
2023-04-03T19:19:30.928Z,1.27
2023-04-03T19:21:59.110Z,1.30
2023-04-03T19:24:27.416Z,1.15
2023-04-03T19:26:58.681Z,1.13
2023-04-03T19:29:27.498Z,1.10
2023-04-03T19:31:55.654Z,1.23
2023-04-03T19:34:23.775Z,1.40
2023-04-03T19:36:52.536Z,1.00
2023-04-03T19:39:20.713Z,1.35
2023-04-03T19:41:48.755Z,1.17
2023-04-03T19:44:18.306Z,1.02
2023-04-03T19:46:51.395Z,1.00
2023-04-03T19:49:20.480Z,0.77
2023-04-03T19:51:48.718Z,1.10
2023-04-03T19:54:17.138Z,0.70
2023-04-03T19:56:45.844Z,0.90
2023-04-03T19:59:14.132Z,0.85
2023-04-03T20:01:43.934Z,0.60
2023-04-03T20:04:12.162Z,0.70
2023-04-03T20:06:40.239Z,0.70
2023-04-03T20:09:08.751Z,0.90
2023-04-03T20:11:38.106Z,1.10
2023-04-03T20:14:07.324Z,0.80
2023-04-03T20:16:35.937Z,1.40
2023-04-03T20:19:06.423Z,1.20
2023-04-03T20:21:35.436Z,1.20
2023-04-03T20:24:07.277Z,1.13
2023-04-03T20:26:46.635Z,1.90
2023-04-03T20:29:16.854Z,0.73
2023-04-03T20:31:45.419Z,0.52
2023-04-03T20:34:15.678Z,0.95
2023-04-03T20:36:49.534Z,0.55
2023-04-03T20:39:19.660Z,0.60
2023-04-03T20:41:47.968Z,0.70
2023-04-03T20:44:17.946Z,0.95
2023-04-03T20:46:53.352Z,1.00
2023-04-03T20:51:53.816Z,0.60
2023-04-03T20:54:24.214Z,0.60
2023-04-03T20:56:53.799Z,0.70
2023-04-03T20:59:24.480Z,0.90
2023-04-03T21:01:52.902Z,0.70
2023-04-03T21:04:30.724Z,0.63
2023-04-03T21:07:39.989Z,1.73
2023-04-03T21:10:45.507Z,0.60
2023-04-03T21:13:51.007Z,0.93
2023-04-03T21:16:18.772Z,0.70
2023-04-03T21:19:07.488Z,0.57
2023-04-03T21:21:39.088Z,0.60
2023-04-03T21:24:10.300Z,0.60
2023-04-03T21:26:39.866Z,0.68
2023-04-03T21:29:08.584Z,0.55
2023-04-03T21:31:51.700Z,0.70
2023-04-03T21:34:22.470Z,0.80
2023-04-03T21:36:50.699Z,0.70
2023-04-03T21:39:18.602Z,0.60
2023-04-03T21:41:47.274Z,0.60
2023-04-03T21:44:15.486Z,0.47
2023-04-03T21:46:54.812Z,0.30
2023-04-03T21:49:25.565Z,0.70
2023-04-03T21:51:54.651Z,0.68
2023-04-03T21:54:22.806Z,0.70
2023-04-03T21:56:52.575Z,0.70
2023-04-03T21:59:21.707Z,0.68
2023-04-03T22:01:49.776Z,0.50
2023-04-03T22:04:18.122Z,0.73
2023-04-03T22:06:53.837Z,0.82
2023-04-03T22:09:22.190Z,0.57
2023-04-03T22:11:50.456Z,0.80
2023-04-03T22:14:18.914Z,0.80
2023-04-03T22:16:47.286Z,0.70
2023-04-03T22:19:15.682Z,0.70
2023-04-03T22:21:43.722Z,0.68
2023-04-03T22:24:13.624Z,0.65
2023-04-03T22:26:44.632Z,0.77
2023-04-03T22:29:17.343Z,0.80
2023-04-03T22:31:45.588Z,0.75
2023-04-03T22:34:13.734Z,0.90
2023-04-03T22:36:43.482Z,0.73
2023-04-03T22:39:19.714Z,0.63
2023-04-03T22:41:48.123Z,0.55
2023-04-03T22:44:36.209Z,0.70
2023-04-03T22:47:13.781Z,0.80
2023-04-03T22:49:41.920Z,0.70
2023-04-03T22:52:10.101Z,0.93
2023-04-03T22:54:39.633Z,0.77
2023-04-03T22:57:09.576Z,0.70
2023-04-03T22:59:37.602Z,0.80
2023-04-03T23:02:06.630Z,0.70
2023-04-03T23:04:34.634Z,0.80
2023-04-03T23:12:04.604Z,0.90
2023-04-03T23:14:34.173Z,0.80
2023-04-03T23:17:05.827Z,0.60
2023-04-03T23:19:35.318Z,0.50
2023-04-03T23:22:03.365Z,0.77
2023-04-03T23:24:32.063Z,0.75
2023-04-03T23:26:59.913Z,0.80
2023-04-03T23:29:28.220Z,0.80
2023-04-03T23:31:58.949Z,1.08
2023-04-03T23:34:27.207Z,0.80
2023-04-03T23:36:55.253Z,0.60
2023-04-03T23:39:23.428Z,0.82
2023-04-03T23:41:51.436Z,0.60
2023-04-03T23:44:19.626Z,0.85
2023-04-03T23:46:47.499Z,0.65
2023-04-03T23:49:17.568Z,0.68
2023-04-03T23:52:04.303Z,0.88
2023-04-03T23:54:52.079Z,0.63
2023-04-03T23:57:20.111Z,0.75
2023-04-03T23:59:48.079Z,0.70
